Time;durP1;ratioP1;P1;durP2;ratioP2;P2;SDS_P1;SDS_P2;PMS_P1;PMS_P2;Temp;Humidity;BMP_temperature;BMP_pressure;BME280_temperature;BME280_humidity;BME280_pressure;Samples;Min_cycle;Max_cycle;Signal;HPM_P1;HPM_P2
2023/07/16 00:02:04;;;;;;;;;;;;;;;;;;6315787;22;1292;-86
2023/07/16 00:04:31;;;;;;;;;;;;;;;;;;6316035;22;1173;-86
2023/07/16 00:07:00;;;;;;;;;;;;;;;;;;6315973;22;1933;-85
2023/07/16 00:09:28;;;;;;;;;;;;;;;;;;6314998;22;1202;-86
2023/07/16 00:11:59;;;;;;;;;;;;;;;;;;6316145;22;1230;-86
2023/07/16 00:14:26;;;;;;;;;;;;;;;;;;6315908;22;1253;-86
2023/07/16 00:16:54;;;;;;;;;;;;;;;;;;6341824;22;1339;-87
2023/07/16 00:19:21;;;;;;;;;;;;;;;;;;6316210;22;1260;-86
2023/07/16 00:21:49;;;;;;;;;;;;;;;;;;6316515;22;1290;-87
2023/07/16 00:24:16;;;;;;;;;;;;;;;;;;6315148;22;1191;-85
2023/07/16 00:26:44;;;;;;;;;;;;;;;;;;6316357;22;1902;-87
2023/07/16 00:29:11;;;;;;;;;;;;;;;;;;6316171;22;1340;-86
2023/07/16 00:31:38;;;;;;;;;;;;;;;;;;6315138;22;1257;-86
2023/07/16 00:34:06;;;;;;;;;;;;;;;;;;6316187;22;1194;-87
2023/07/16 00:36:33;;;;;;;;;;;;;;;;;;6341684;22;1185;-86
2023/07/16 00:39:00;;;;;;;;;;;;;;;;;;6315480;22;1453;-84
2023/07/16 00:41:28;;;;;;;;;;;;;;;;;;6315083;22;1259;-88
2023/07/16 00:43:56;;;;;;;;;;;;;;;;;;6341377;22;1283;-87
2023/07/16 00:46:24;;;;;;;;;;;;;;;;;;6315199;22;1945;-86
2023/07/16 00:48:51;;;;;;;;;;;;;;;;;;6315737;22;1334;-86
2023/07/16 00:51:19;;;;;;;;;;;;;;;;;;6316071;22;1198;-85
2023/07/16 00:53:47;;;;;;;;;;;;;;;;;;6340785;22;1170;-84
2023/07/16 00:56:16;;;;;;;;;;;;;;;;;;6316426;22;1214;-88
2023/07/16 00:58:44;;;;;;;;;;;;;;;;;;6315987;22;1205;-86
2023/07/16 01:01:11;;;;;;;;;;;;;;;;;;6315566;22;1309;-86
2023/07/16 01:03:38;;;;;;;;;;;;;;;;;;6341405;22;839;-86
2023/07/16 01:06:15;;;;;;;;;;;;;;;;;;6340985;22;1206;-84
2023/07/16 01:08:45;;;;;;;;;;;;;;;;;;6315137;22;1390;-85
2023/07/16 01:11:12;;;;;;;;;;;;;;;;;;6315446;22;1212;-85
2023/07/16 01:13:40;;;;;;;;;;;;;;;;;;6340689;22;1091;-86
2023/07/16 01:16:17;;;;;;;;;;;;;;;;;;6341038;22;877;-86
2023/07/16 01:18:45;;;;;;;;;;;;;;;;;;6315628;22;1166;-87
2023/07/16 01:21:12;;;;;;;;;;;;;;;;;;6342072;22;981;-86
2023/07/16 01:23:40;;;;;;;;;;;;;;;;;;6367918;22;882;-86
2023/07/16 01:26:16;;;;;;;;;;;;;;;;;;6341067;22;1392;-85
2023/07/16 01:29:04;;;;;;;;;;;;;;;;;;6315699;22;1941;-88
2023/07/16 01:31:33;;;;;;;;;;;;;;;;;;6314774;22;871;-86
2023/07/16 01:34:03;;;;;;;;;;;;;;;;;;6341749;22;882;-86
2023/07/16 01:36:31;;;;;;;;;;;;;;;;;;6314885;22;1299;-85
2023/07/16 01:38:59;;;;;;;;;;;;;;;;;;6314747;22;1249;-86
2023/07/16 01:41:26;;;;;;;;;;;;;;;;;;6340871;22;1209;-87
2023/07/16 01:43:54;;;;;;;;;;;;;;;;;;6314900;22;1398;-86
2023/07/16 01:46:24;;;;;;;;;;;;;;;;;;6315596;22;1201;-87
2023/07/16 01:48:51;;;;;;;;;;;;;;;;;;6341374;22;845;-87
2023/07/16 01:51:21;;;;;;;;;;;;;;;;;;6315938;22;1332;-85
2023/07/16 01:53:49;;;;;;;;;;;;;;;;;;6314215;22;1190;-86
2023/07/16 01:56:16;;;;;;;;;;;;;;;;;;6314463;22;1200;-83
2023/07/16 01:58:47;;;;;;;;;;;;;;;;;;6315760;22;1277;-84
2023/07/16 02:01:14;;;;;;;;;;;;;;;;;;6368451;22;878;-84
2023/07/16 02:03:42;;;;;;;;;;;;;;;;;;6368290;22;823;-86
2023/07/16 02:06:09;;;;;;;;;;;;;;;;;;6341377;22;858;-86
2023/07/16 02:08:36;;;;;;;;;;;;;;;;;;6313798;22;1932;-85
2023/07/16 02:11:04;;;;;;;;;;;;;;;;;;6314922;22;1154;-85
2023/07/16 02:13:31;;;;;;;;;;;;;;;;;;6340398;22;1241;-86
2023/07/16 02:15:58;;;;;;;;;;;;;;;;;;6314585;22;1216;-85
2023/07/16 02:18:26;;;;;;;;;;;;;;;;;;6368076;22;822;-85
2023/07/16 02:20:53;;;;;;;;;;;;;;;;;;6314945;22;1197;-84
2023/07/16 02:23:20;;;;;;;;;;;;;;;;;;6314403;22;1348;-85
2023/07/16 02:25:47;;;;;;;;;;;;;;;;;;6314617;22;1261;-85
2023/07/16 02:28:16;;;;;;;;;;;;;;;;;;6340509;22;1900;-83
2023/07/16 02:30:43;;;;;;;;;;;;;;;;;;6340050;22;1313;-84
2023/07/16 02:33:11;;;;;;;;;;;;;;;;;;6314360;22;1306;-85
2023/07/16 02:35:38;;;;;;;;;;;;;;;;;;6314119;22;1178;-83
2023/07/16 02:38:05;;;;;;;;;;;;;;;;;;6340193;22;863;-84
2023/07/16 02:40:33;;;;;;;;;;;;;;;;;;6314306;22;1333;-83
2023/07/16 02:43:00;;;;;;;;;;;;;;;;;;6314837;22;1160;-85
2023/07/16 02:45:27;;;;;;;;;;;;;;;;;;6339972;22;1441;-86
2023/07/16 02:47:55;;;;;;;;;;;;;;;;;;6315023;22;1900;-86
2023/07/16 02:50:22;;;;;;;;;;;;;;;;;;6314319;22;1178;-84
2023/07/16 02:52:50;;;;;;;;;;;;;;;;;;6314146;22;1217;-84
2023/07/16 02:55:17;;;;;;;;;;;;;;;;;;6314733;22;1284;-86
2023/07/16 02:57:44;;;;;;;;;;;;;;;;;;6315304;22;1332;-88
2023/07/16 03:00:12;;;;;;;;;;;;;;;;;;6314729;22;1181;-88
2023/07/16 03:02:42;;;;;;;;;;;;;;;;;;6315143;22;1313;-85
2023/07/16 03:05:10;;;;;;;;;;;;;;;;;;6315824;22;1295;-87
2023/07/16 03:07:37;;;;;;;;;;;;;;;;;;6316878;22;1970;-85
2023/07/16 03:10:04;;;;;;;;;;;;;;;;;;6317642;22;1173;-87
2023/07/16 03:12:32;;;;;;;;;;;;;;;;;;6317008;22;1327;-89
2023/07/16 03:14:59;;;;;;;;;;;;;;;;;;6316614;22;1543;-88
2023/07/16 03:17:27;;;;;;;;;;;;;;;;;;6316814;22;1226;-90
2023/07/16 03:19:54;;;;;;;;;;;;;;;;;;6317152;22;1294;-89
2023/07/16 03:22:22;;;;;;;;;;;;;;;;;;6317115;22;1289;-89
2023/07/16 03:24:49;;;;;;;;;;;;;;;;;;6317138;22;1181;-90
2023/07/16 03:27:16;;;;;;;;;;;;;;;;;;6316889;22;1909;-88
2023/07/16 03:29:50;;;;;;;;;;;;;;;;;;6318187;22;1336;-88
2023/07/16 03:32:18;;;;;;;;;;;;;;;;;;6316937;22;1181;-89
2023/07/16 03:34:46;;;;;;;;;;;;;;;;;;6317501;22;1196;-88
2023/07/16 03:37:13;;;;;;;;;;;;;;;;;;6317022;22;1583;-91
2023/07/16 03:39:40;;;;;;;;;;;;;;;;;;6317242;22;1210;-92
2023/07/16 03:42:08;;;;;;;;;;;;;;;;;;6317686;22;1225;-88
2023/07/16 03:44:36;;;;;;;;;;;;;;;;;;6316425;22;1272;-90
2023/07/16 03:47:03;;;;;;;;;;;;;;;;;;6317174;22;1947;-89
2023/07/16 03:49:31;;;;;;;;;;;;;;;;;;6316834;22;1358;-87
2023/07/16 03:51:58;;;;;;;;;;;;;;;;;;6316422;22;1307;-88
2023/07/16 03:54:26;;;;;;;;;;;;;;;;;;6316259;22;1181;-86
2023/07/16 03:56:54;;;;;;;;;;;;;;;;;;6316192;22;1334;-87
2023/07/16 03:59:22;;;;;;;;;;;;;;;;;;6315890;22;1322;-86
2023/07/16 04:01:49;;;;;;;;;;;;;;;;;;6316043;22;1423;-86
2023/07/16 04:04:16;;;;;;;;;;;;;;;;;;6315890;22;1416;-86
2023/07/16 04:06:44;;;;;;;;;;;;;;;;;;6315812;22;1233;-85
2023/07/16 04:09:11;;;;;;;;;;;;;;;;;;6341884;22;1932;-84
2023/07/16 04:11:39;;;;;;;;;;;;;;;;;;6315196;22;1477;-84
2023/07/16 04:14:06;;;;;;;;;;;;;;;;;;6314858;22;1509;-84
2023/07/16 04:16:33;;;;;;;;;;;;;;;;;;6315249;22;1209;-85
2023/07/16 04:19:01;;;;;;;;;;;;;;;;;;6315825;22;1181;-86
2023/07/16 04:21:28;;;;;;;;;;;;;;;;;;6340400;22;1165;-86
2023/07/16 04:23:55;;;;;;;;;;;;;;;;;;6315158;22;1172;-85
2023/07/16 04:26:23;;;;;;;;;;;;;;;;;;6340676;22;1329;-85
2023/07/16 04:28:50;;;;;;;;;;;;;;;;;;6368424;22;1896;-85
2023/07/16 04:31:17;;;;;;;;;;;;;;;;;;6340864;22;1249;-85
2023/07/16 04:33:44;;;;;;;;;;;;;;;;;;6315559;22;1219;-85
2023/07/16 04:36:12;;;;;;;;;;;;;;;;;;6315133;22;1212;-85
2023/07/16 04:38:39;;;;;;;;;;;;;;;;;;6315474;22;1189;-85
2023/07/16 04:41:07;;;;;;;;;;;;;;;;;;6315306;22;1297;-85
2023/07/16 04:43:34;;;;;;;;;;;;;;;;;;6314331;22;1208;-84
2023/07/16 04:46:01;;;;;;;;;;;;;;;;;;6341045;22;1322;-85
2023/07/16 04:48:29;;;;;;;;;;;;;;;;;;6315161;22;1896;-85
2023/07/16 04:50:56;;;;;;;;;;;;;;;;;;6340694;22;885;-84
2023/07/16 04:53:23;;;;;;;;;;;;;;;;;;6314799;22;1187;-86
2023/07/16 04:55:51;;;;;;;;;;;;;;;;;;6341398;22;851;-86
2023/07/16 04:58:18;;;;;;;;;;;;;;;;;;6314233;22;1189;-85
2023/07/16 05:00:46;;;;;;;;;;;;;;;;;;6314787;22;1263;-84
2023/07/16 05:03:13;;;;;;;;;;;;;;;;;;6340696;22;1193;-85
2023/07/16 05:05:40;;;;;;;;;;;;;;;;;;6316442;22;887;-85
2023/07/16 05:08:08;;;;;;;;;;;;;;;;;;6344540;22;1949;-85
2023/07/16 05:10:35;;;;;;;;;;;;;;;;;;6319137;22;1334;-84
2023/07/16 05:13:03;;;;;;;;;;;;;;;;;;6370673;22;880;-84
2023/07/16 05:15:32;;;;;;;;;;;;;;;;;;6340046;22;906;-85
2023/07/16 05:17:59;;;;;;;;;;;;;;;;;;6368501;22;854;-85
2023/07/16 05:20:26;;;;;;;;;;;;;;;;;;6339579;22;1225;-85
2023/07/16 05:22:54;;;;;;;;;;;;;;;;;;6314547;22;1447;-85
2023/07/16 05:25:21;;;;;;;;;;;;;;;;;;6339946;22;1285;-84
2023/07/16 05:27:48;;;;;;;;;;;;;;;;;;6339399;22;1904;-84
2023/07/16 05:30:16;;;;;;;;;;;;;;;;;;6368418;22;881;-85
2023/07/16 05:32:43;;;;;;;;;;;;;;;;;;6314183;22;1207;-84
2023/07/16 05:35:11;;;;;;;;;;;;;;;;;;6313726;22;1354;-84
2023/07/16 05:37:38;;;;;;;;;;;;;;;;;;6339814;22;832;-83
2023/07/16 05:40:08;;;;;;;;;;;;;;;;;;6314370;22;1284;-84
2023/07/16 05:42:36;;;;;;;;;;;;;;;;;;6313613;22;1295;-83
2023/07/16 05:45:03;;;;;;;;;;;;;;;;;;6314204;22;1181;-84
2023/07/16 05:47:31;;;;;;;;;;;;;;;;;;6340335;22;1896;-84
2023/07/16 05:49:58;;;;;;;;;;;;;;;;;;6340081;22;1194;-85
2023/07/16 05:52:28;;;;;;;;;;;;;;;;;;6314687;22;1548;-84
2023/07/16 05:54:55;;;;;;;;;;;;;;;;;;6314530;22;1324;-86
2023/07/16 05:57:22;;;;;;;;;;;;;;;;;;6313588;22;1439;-85
2023/07/16 05:59:50;;;;;;;;;;;;;;;;;;6340374;22;827;-82
2023/07/16 06:02:18;;;;;;;;;;;;;;;;;;6367210;22;798;-84
2023/07/16 06:04:45;;;;;;;;;;;;;;;;;;6340283;22;988;-84
2023/07/16 06:07:13;;;;;;;;;;;;;;;;;;6314270;22;1305;-83
2023/07/16 06:09:40;;;;;;;;;;;;;;;;;;6367378;22;1912;-83
2023/07/16 06:12:08;;;;;;;;;;;;;;;;;;6339265;22;1241;-84
2023/07/16 06:14:35;;;;;;;;;;;;;;;;;;6367242;22;835;-83
2023/07/16 06:17:02;;;;;;;;;;;;;;;;;;6367649;22;860;-84
2023/07/16 06:19:30;;;;;;;;;;;;;;;;;;6339896;22;846;-83
2023/07/16 06:21:57;;;;;;;;;;;;;;;;;;6314191;22;1416;-85
2023/07/16 06:24:24;;;;;;;;;;;;;;;;;;6339829;22;870;-83
2023/07/16 06:26:52;;;;;;;;;;;;;;;;;;6339183;22;1153;-83
2023/07/16 06:29:19;;;;;;;;;;;;;;;;;;6339373;22;1946;-84
2023/07/16 06:31:56;;;;;;;;;;;;;;;;;;6314169;22;1515;-83
2023/07/16 06:34:24;;;;;;;;;;;;;;;;;;6339708;22;862;-86
2023/07/16 06:36:52;;;;;;;;;;;;;;;;;;6367676;22;882;-84
2023/07/16 06:39:19;;;;;;;;;;;;;;;;;;6368143;22;886;-83
2023/07/16 06:41:47;;;;;;;;;;;;;;;;;;6369167;22;842;-83
2023/07/16 06:44:14;;;;;;;;;;;;;;;;;;6369702;22;871;-83
2023/07/16 06:46:42;;;;;;;;;;;;;;;;;;6342134;22;1073;-83
2023/07/16 06:49:13;;;;;;;;;;;;;;;;;;6369944;22;1944;-83
2023/07/16 06:51:41;;;;;;;;;;;;;;;;;;6341788;22;867;-83
2023/07/16 06:54:09;;;;;;;;;;;;;;;;;;6341889;22;1386;-83
2023/07/16 06:56:36;;;;;;;;;;;;;;;;;;6369599;22;803;-83
2023/07/16 06:59:04;;;;;;;;;;;;;;;;;;6369999;22;877;-82
2023/07/16 07:01:31;;;;;;;;;;;;;;;;;;6342320;22;872;-83
2023/07/16 07:03:59;;;;;;;;;;;;;;;;;;6316003;22;1229;-85
2023/07/16 07:06:26;;;;;;;;;;;;;;;;;;6369767;22;823;-84
2023/07/16 07:08:53;;;;;;;;;;;;;;;;;;6315749;22;1968;-83
2023/07/16 07:11:21;;;;;;;;;;;;;;;;;;6369530;22;854;-84
2023/07/16 07:13:50;;;;;;;;;;;;;;;;;;6316732;22;1264;-82
2023/07/16 07:16:17;;;;;;;;;;;;;;;;;;6341606;22;1198;-83
2023/07/16 07:18:45;;;;;;;;;;;;;;;;;;6316116;22;1328;-83
2023/07/16 07:21:15;;;;;;;;;;;;;;;;;;6370005;22;826;-82
2023/07/16 07:23:43;;;;;;;;;;;;;;;;;;6369773;22;928;-83
2023/07/16 07:26:10;;;;;;;;;;;;;;;;;;6315500;22;1202;-82
2023/07/16 07:28:37;;;;;;;;;;;;;;;;;;6342148;22;1938;-83
2023/07/16 07:31:05;;;;;;;;;;;;;;;;;;6341481;22;1537;-83
2023/07/16 07:33:32;;;;;;;;;;;;;;;;;;6369326;22;830;-83
2023/07/16 07:36:00;;;;;;;;;;;;;;;;;;6341488;22;1198;-82
2023/07/16 07:38:28;;;;;;;;;;;;;;;;;;6341603;22;1234;-81
2023/07/16 07:40:55;;;;;;;;;;;;;;;;;;6340831;22;1266;-84
2023/07/16 07:43:23;;;;;;;;;;;;;;;;;;6369490;22;838;-82
2023/07/16 07:45:50;;;;;;;;;;;;;;;;;;6341783;22;1346;-84
2023/07/16 07:48:18;;;;;;;;;;;;;;;;;;6369409;22;1937;-85
2023/07/16 07:50:48;;;;;;;;;;;;;;;;;;6341563;22;1225;-83
2023/07/16 07:53:18;;;;;;;;;;;;;;;;;;6316964;22;1238;-83
2023/07/16 07:55:46;;;;;;;;;;;;;;;;;;6368888;22;838;-83
2023/07/16 07:58:13;;;;;;;;;;;;;;;;;;6341286;22;927;-84
2023/07/16 08:00:41;;;;;;;;;;;;;;;;;;6341438;22;882;-85
2023/07/16 08:03:08;;;;;;;;;;;;;;;;;;6369567;22;874;-84
